createdAt,value
2023-03-17T00:01:24.195Z,4.80
2023-03-17T00:03:52.100Z,4.75
2023-03-17T00:06:28.717Z,4.18
2023-03-17T00:11:27.628Z,4.32
2023-03-17T00:14:01.562Z,4.03
2023-03-17T00:16:32.840Z,4.53
2023-03-17T00:19:00.743Z,4.18
2023-03-17T00:21:30.861Z,4.03
2023-03-17T00:23:59.723Z,4.30
2023-03-17T00:26:28.662Z,4.40
2023-03-17T00:28:56.674Z,4.10
2023-03-17T00:31:26.285Z,5.03
2023-03-17T00:33:55.196Z,4.30
2023-03-17T00:36:34.607Z,4.82
2023-03-17T00:41:40.959Z,3.92
2023-03-17T00:44:09.272Z,4.40
2023-03-17T00:46:38.935Z,3.85
2023-03-17T00:51:45.132Z,4.18
2023-03-17T00:54:15.742Z,3.65
2023-03-17T00:56:44.926Z,3.40
2023-03-17T00:59:24.410Z,3.60
2023-03-17T01:01:53.910Z,3.42
2023-03-17T01:04:22.852Z,3.72
2023-03-17T01:06:52.291Z,3.60
2023-03-17T01:09:24.255Z,4.32
2023-03-17T01:11:52.084Z,3.33
2023-03-17T01:14:20.340Z,3.67
2023-03-17T01:16:48.767Z,3.00
2023-03-17T01:19:17.623Z,3.28
2023-03-17T01:21:46.927Z,3.45
2023-03-17T01:24:18.187Z,3.38
2023-03-17T01:26:46.030Z,3.00
2023-03-17T01:29:14.747Z,3.30
2023-03-17T01:31:42.687Z,3.33
2023-03-17T01:34:13.033Z,3.92
2023-03-17T01:36:41.528Z,3.45
2023-03-17T01:39:09.491Z,3.50
2023-03-17T01:41:37.780Z,4.57
2023-03-17T01:44:07.873Z,3.47
2023-03-17T01:46:36.997Z,3.25
2023-03-17T01:49:09.790Z,2.85
2023-03-17T01:51:43.075Z,3.15
2023-03-17T01:54:36.139Z,3.65
2023-03-17T01:57:15.314Z,3.63
2023-03-17T02:00:08.924Z,3.40
2023-03-17T02:02:46.164Z,3.03
2023-03-17T02:05:18.047Z,3.67
2023-03-17T02:07:46.508Z,3.08
2023-03-17T02:10:18.312Z,2.70
2023-03-17T02:12:51.134Z,3.03
2023-03-17T02:15:19.798Z,2.80
2023-03-17T02:17:47.824Z,2.85
2023-03-17T02:20:19.037Z,3.63
2023-03-17T02:22:55.113Z,3.38
2023-03-17T02:25:25.835Z,2.83
2023-03-17T02:28:00.311Z,3.38
2023-03-17T02:30:29.401Z,3.22
2023-03-17T02:32:57.536Z,3.03
2023-03-17T02:35:25.261Z,2.97
2023-03-17T02:37:53.915Z,3.42
2023-03-17T02:40:22.147Z,3.58
2023-03-17T02:42:51.586Z,3.00
2023-03-17T02:45:19.403Z,3.25
2023-03-17T02:47:49.455Z,3.13
2023-03-17T02:50:23.671Z,2.55
2023-03-17T02:52:52.167Z,3.45
2023-03-17T02:55:20.625Z,2.88
2023-03-17T02:57:48.770Z,2.88
2023-03-17T03:00:16.885Z,2.80
2023-03-17T03:02:44.681Z,2.55
2023-03-17T03:05:12.793Z,3.13
2023-03-17T03:07:40.666Z,2.60
2023-03-17T03:10:09.496Z,2.42
2023-03-17T03:12:37.567Z,3.50
2023-03-17T03:15:08.844Z,2.78
2023-03-17T03:17:36.755Z,2.70
2023-03-17T03:20:06.168Z,2.70
2023-03-17T03:22:33.843Z,2.70
2023-03-17T03:25:01.858Z,2.65
2023-03-17T03:27:30.193Z,3.20
2023-03-17T03:29:59.069Z,2.92
2023-03-17T03:32:28.076Z,2.80
2023-03-17T03:34:57.122Z,2.53
2023-03-17T03:37:25.133Z,2.95
2023-03-17T03:39:53.432Z,2.90
2023-03-17T03:42:21.233Z,2.70
2023-03-17T03:44:49.137Z,2.35
2023-03-17T03:47:16.934Z,2.70
2023-03-17T03:49:44.744Z,3.08
2023-03-17T03:52:12.518Z,2.67
2023-03-17T03:54:40.625Z,2.40
2023-03-17T03:57:08.703Z,2.58
2023-03-17T03:59:36.739Z,2.40
2023-03-17T04:02:04.938Z,2.40
2023-03-17T04:04:33.212Z,2.78
2023-03-17T04:07:01.648Z,2.33
2023-03-17T04:09:29.606Z,2.60
2023-03-17T04:11:57.446Z,2.80
2023-03-17T04:14:25.354Z,2.53
2023-03-17T04:16:53.106Z,2.42
2023-03-17T04:19:22.016Z,2.75
2023-03-17T04:21:50.139Z,2.53
2023-03-17T04:24:18.198Z,2.58
2023-03-17T04:26:46.026Z,2.40
2023-03-17T04:29:15.918Z,2.80
2023-03-17T04:31:45.220Z,1.95
2023-03-17T04:34:18.960Z,2.15
2023-03-17T04:36:48.075Z,2.13
2023-03-17T04:39:17.725Z,2.63
2023-03-17T04:41:46.637Z,2.20
2023-03-17T04:44:16.228Z,2.20
2023-03-17T04:46:44.041Z,2.13
2023-03-17T04:49:12.119Z,3.25
2023-03-17T04:51:41.347Z,2.30
2023-03-17T04:54:09.393Z,2.17
2023-03-17T04:56:37.588Z,1.80
2023-03-17T04:59:05.886Z,2.30
2023-03-17T05:01:33.718Z,2.22
2023-03-17T05:04:01.787Z,2.05
2023-03-17T05:06:29.711Z,2.28
2023-03-17T05:08:57.518Z,1.88
2023-03-17T05:11:25.848Z,1.98
2023-03-17T05:13:53.762Z,2.13
2023-03-17T05:16:22.145Z,2.67
2023-03-17T05:18:50.282Z,2.20
2023-03-17T05:21:17.964Z,2.15
2023-03-17T05:23:45.735Z,2.53
2023-03-17T05:26:13.555Z,2.13
2023-03-17T05:28:41.544Z,2.50
2023-03-17T05:31:11.199Z,2.10
2023-03-17T05:33:39.242Z,2.42
2023-03-17T05:36:08.177Z,2.10
2023-03-17T05:38:36.178Z,2.83
2023-03-17T05:41:04.458Z,3.60
2023-03-17T05:43:32.764Z,4.05
2023-03-17T05:46:00.629Z,3.78
2023-03-17T05:48:28.484Z,3.83
2023-03-17T05:50:56.279Z,2.72
2023-03-17T05:53:24.210Z,2.72
2023-03-17T05:55:53.505Z,2.42
2023-03-17T05:58:22.511Z,2.55
2023-03-17T06:00:50.427Z,2.13
2023-03-17T06:03:18.461Z,2.28
2023-03-17T06:05:46.618Z,3.53
2023-03-17T06:08:15.212Z,3.08
2023-03-17T06:10:43.332Z,2.60
2023-03-17T06:13:12.017Z,3.88
2023-03-17T06:15:40.053Z,3.95
2023-03-17T06:18:08.094Z,7.82
2023-03-17T06:20:36.881Z,7.78
2023-03-17T06:23:06.074Z,8.73
2023-03-17T06:25:35.168Z,8.02
2023-03-17T06:28:04.285Z,7.28
2023-03-17T06:30:35.132Z,7.30
2023-03-17T06:33:04.044Z,6.40
2023-03-17T06:35:33.540Z,7.07
2023-03-17T06:38:02.606Z,6.35
2023-03-17T06:40:30.943Z,6.18
2023-03-17T06:43:01.291Z,5.00
2023-03-17T06:45:29.626Z,4.10
2023-03-17T06:47:58.059Z,4.32
2023-03-17T06:50:26.032Z,3.60
2023-03-17T06:52:53.860Z,2.80
2023-03-17T06:55:22.888Z,3.65
2023-03-17T06:57:51.467Z,3.10
2023-03-17T07:00:21.371Z,2.60
2023-03-17T07:02:49.779Z,2.67
2023-03-17T07:05:18.105Z,3.15
2023-03-17T07:07:46.250Z,2.30
2023-03-17T07:10:15.885Z,4.13
2023-03-17T07:12:44.953Z,4.20
2023-03-17T07:15:12.982Z,3.45
2023-03-17T07:17:41.064Z,2.90
2023-03-17T07:20:14.165Z,3.10
2023-03-17T07:22:42.537Z,2.63
2023-03-17T07:25:11.176Z,2.60
2023-03-17T07:27:40.066Z,3.58
2023-03-17T07:30:09.117Z,2.90
2023-03-17T07:32:37.960Z,3.28
2023-03-17T07:35:07.737Z,4.00
2023-03-17T07:37:35.667Z,4.53
2023-03-17T07:40:04.586Z,4.55
2023-03-17T07:42:32.564Z,5.38
2023-03-17T07:45:00.737Z,5.35
2023-03-17T07:47:28.607Z,5.65
2023-03-17T07:49:56.740Z,5.55
2023-03-17T07:52:24.637Z,4.60
2023-03-17T07:54:54.781Z,4.30
2023-03-17T07:57:22.722Z,4.00
2023-03-17T07:59:51.006Z,3.83
2023-03-17T08:02:19.712Z,4.45
2023-03-17T08:04:47.864Z,3.55
2023-03-17T08:07:17.189Z,3.40
2023-03-17T08:09:45.258Z,3.53
2023-03-17T08:12:13.753Z,3.55
2023-03-17T08:14:41.690Z,3.50
2023-03-17T08:17:09.515Z,3.15
2023-03-17T08:19:37.583Z,3.75
2023-03-17T08:22:06.557Z,3.30
2023-03-17T08:24:34.893Z,4.00
2023-03-17T08:27:04.246Z,3.72
2023-03-17T08:29:31.907Z,3.45
2023-03-17T08:31:59.712Z,4.15
2023-03-17T08:34:29.428Z,3.40
2023-03-17T08:36:57.512Z,3.40
2023-03-17T08:39:25.709Z,2.92
2023-03-17T08:41:53.806Z,2.97
2023-03-17T08:44:22.180Z,3.38
2023-03-17T08:46:50.729Z,3.63
2023-03-17T08:49:19.020Z,3.55
2023-03-17T08:51:47.592Z,4.57
2023-03-17T08:54:15.610Z,4.55
2023-03-17T08:56:43.848Z,4.80
2023-03-17T08:59:16.500Z,4.00
2023-03-17T09:01:47.390Z,3.33
2023-03-17T09:04:15.891Z,3.28
2023-03-17T09:07:01.824Z,3.92
2023-03-17T09:09:31.363Z,3.30
2023-03-17T09:11:59.602Z,3.65
2023-03-17T09:14:28.409Z,2.55
2023-03-17T09:16:57.544Z,3.40
2023-03-17T09:19:25.632Z,4.00
2023-03-17T09:21:56.050Z,3.88
2023-03-17T09:24:23.980Z,3.92
2023-03-17T09:26:53.348Z,4.22
2023-03-17T09:29:21.663Z,4.47
2023-03-17T09:31:49.434Z,4.78
2023-03-17T09:34:17.277Z,5.20
2023-03-17T09:36:45.067Z,4.45
2023-03-17T09:39:12.903Z,5.93
2023-03-17T09:42:02.465Z,6.28
2023-03-17T09:44:42.254Z,5.93
2023-03-17T09:47:10.480Z,5.20
2023-03-17T09:49:45.154Z,4.70
2023-03-17T09:52:18.878Z,3.80
2023-03-17T09:54:49.711Z,4.30
2023-03-17T09:57:36.464Z,6.03
2023-03-17T10:00:19.482Z,4.80
2023-03-17T10:02:47.418Z,4.75
2023-03-17T10:05:20.765Z,4.65
2023-03-17T10:08:05.353Z,4.82
2023-03-17T10:11:09.010Z,2.95
2023-03-17T10:14:02.073Z,3.70
2023-03-17T10:17:05.911Z,5.65
2023-03-17T10:19:46.301Z,4.05
2023-03-17T10:22:25.601Z,5.90
2023-03-17T10:24:58.061Z,5.53
2023-03-17T10:27:28.202Z,5.00
2023-03-17T10:29:57.204Z,4.38
2023-03-17T10:32:26.996Z,5.00
2023-03-17T10:34:55.985Z,4.05
2023-03-17T10:37:24.926Z,3.47
2023-03-17T10:39:58.756Z,2.65
2023-03-17T10:42:32.432Z,3.40
2023-03-17T10:45:31.081Z,3.35
2023-03-17T10:48:01.809Z,2.83
2023-03-17T10:50:34.131Z,3.38
2023-03-17T10:53:08.201Z,3.50
2023-03-17T10:55:39.107Z,3.10
2023-03-17T10:58:24.478Z,3.42
2023-03-17T11:01:05.995Z,3.10
2023-03-17T11:03:40.267Z,3.83
2023-03-17T11:06:10.893Z,3.83
2023-03-17T11:08:47.245Z,3.55
2023-03-17T11:11:30.562Z,3.23
2023-03-17T11:14:16.231Z,3.55
2023-03-17T11:17:04.170Z,2.97
2023-03-17T11:19:47.717Z,3.42
2023-03-17T11:22:32.129Z,3.67
2023-03-17T11:25:16.042Z,2.72
2023-03-17T11:28:02.700Z,2.67
2023-03-17T11:30:30.903Z,3.17
2023-03-17T11:33:10.996Z,3.83
2023-03-17T11:35:45.940Z,4.18
2023-03-17T11:38:19.877Z,3.58
2023-03-17T11:41:23.153Z,4.18
2023-03-17T11:44:03.209Z,4.53
2023-03-17T11:46:46.559Z,4.07
2023-03-17T11:49:20.576Z,3.00
2023-03-17T11:52:03.512Z,4.00
2023-03-17T11:55:00.693Z,3.15
2023-03-17T11:57:37.596Z,3.45
2023-03-17T12:00:17.094Z,3.33
2023-03-17T12:02:53.407Z,3.55
2023-03-17T12:05:26.327Z,4.27
2023-03-17T12:07:59.524Z,3.55
2023-03-17T12:10:45.878Z,4.00
2023-03-17T12:13:24.276Z,4.00
2023-03-17T12:16:00.481Z,3.92
2023-03-17T12:18:33.282Z,3.50
2023-03-17T12:21:07.961Z,3.53
2023-03-17T12:24:08.074Z,3.90
2023-03-17T12:27:05.236Z,5.10
2023-03-17T12:29:52.713Z,4.93
2023-03-17T12:32:25.590Z,3.50
2023-03-17T12:34:58.021Z,3.38
2023-03-17T12:37:30.312Z,3.97
2023-03-17T12:40:14.550Z,3.83
2023-03-17T12:42:54.676Z,3.65
2023-03-17T12:45:41.163Z,3.80
2023-03-17T12:48:45.998Z,5.20
2023-03-17T12:51:13.890Z,5.93
2023-03-17T12:53:45.314Z,6.15
2023-03-17T12:56:25.236Z,6.45
2023-03-17T12:58:59.780Z,7.05
2023-03-17T13:01:32.533Z,8.93
2023-03-17T13:04:15.623Z,8.65
2023-03-17T13:07:06.465Z,7.15
2023-03-17T13:09:37.512Z,6.15
2023-03-17T13:12:07.052Z,5.60
2023-03-17T13:14:51.894Z,5.60
2023-03-17T13:17:24.120Z,5.93
2023-03-17T13:20:15.199Z,4.78
2023-03-17T13:23:11.324Z,4.70
2023-03-17T13:25:43.255Z,4.38
2023-03-17T13:28:11.945Z,4.30
2023-03-17T13:30:39.773Z,4.10
2023-03-17T13:33:15.742Z,4.70
2023-03-17T13:35:46.148Z,5.45
2023-03-17T13:38:26.652Z,7.20
2023-03-17T13:41:16.048Z,10.80
2023-03-17T13:44:04.031Z,13.68
2023-03-17T13:46:40.389Z,14.60
2023-03-17T13:49:26.813Z,11.52
2023-03-17T13:51:59.798Z,10.02
2023-03-17T13:54:28.459Z,8.68
2023-03-17T13:57:38.376Z,9.45
2023-03-17T14:00:21.909Z,8.23
2023-03-17T14:02:53.958Z,7.95
2023-03-17T14:05:29.282Z,7.00
2023-03-17T14:08:02.020Z,5.35
2023-03-17T14:10:33.352Z,5.70
2023-03-17T14:13:06.924Z,5.50
2023-03-17T14:15:48.389Z,6.05
2023-03-17T14:18:19.371Z,5.78
2023-03-17T14:20:55.401Z,4.68
2023-03-17T14:23:24.198Z,3.85
2023-03-17T14:25:54.949Z,4.63
2023-03-17T14:28:32.992Z,4.65
2023-03-17T14:31:07.171Z,3.83
2023-03-17T14:33:41.169Z,4.75
2023-03-17T14:36:14.359Z,4.72
2023-03-17T14:38:54.755Z,3.72
2023-03-17T14:41:26.151Z,3.55
2023-03-17T14:43:58.446Z,3.63
2023-03-17T14:46:33.494Z,3.42
2023-03-17T14:49:14.673Z,3.58
2023-03-17T14:51:43.427Z,2.50
2023-03-17T14:54:25.637Z,5.03
2023-03-17T14:57:02.319Z,3.80
2023-03-17T14:59:34.626Z,3.55
2023-03-17T15:02:24.865Z,4.00
2023-03-17T15:05:23.562Z,3.70
2023-03-17T15:07:53.039Z,4.10
2023-03-17T15:10:25.069Z,3.78
2023-03-17T15:13:06.470Z,4.38
2023-03-17T15:15:38.175Z,5.25
2023-03-17T15:18:20.470Z,4.53
2023-03-17T15:20:48.304Z,4.38
2023-03-17T15:23:22.553Z,3.88
2023-03-17T15:25:56.555Z,4.35
2023-03-17T15:28:31.663Z,3.75
2023-03-17T15:31:12.177Z,4.65
2023-03-17T15:33:41.494Z,4.95
2023-03-17T15:36:29.321Z,4.07
2023-03-17T15:38:59.514Z,3.88
2023-03-17T15:41:27.383Z,3.63
2023-03-17T15:43:55.207Z,3.83
2023-03-17T15:46:33.812Z,4.28
2023-03-17T15:49:02.385Z,3.55
2023-03-17T15:51:31.871Z,2.90
2023-03-17T15:53:59.738Z,4.30
2023-03-17T15:56:28.879Z,3.60
2023-03-17T15:58:56.719Z,3.13
2023-03-17T16:01:27.660Z,3.33
2023-03-17T16:03:55.779Z,3.67
2023-03-17T16:06:24.557Z,4.15
2023-03-17T16:08:52.501Z,4.53
2023-03-17T16:11:28.222Z,3.85
2023-03-17T16:14:01.235Z,4.03
2023-03-17T16:16:43.732Z,4.53
2023-03-17T16:19:23.679Z,4.47
2023-03-17T16:21:52.079Z,16.48
2023-03-17T16:24:22.947Z,25.38
2023-03-17T16:26:51.566Z,20.42
2023-03-17T16:29:21.642Z,15.13
2023-03-17T16:31:51.226Z,11.73
2023-03-17T16:34:21.917Z,9.55
2023-03-17T16:36:50.745Z,8.68
2023-03-17T16:39:25.111Z,7.07
2023-03-17T16:41:55.622Z,5.50
2023-03-17T16:44:26.558Z,4.70
2023-03-17T16:46:54.429Z,4.13
2023-03-17T16:49:23.271Z,3.67
2023-03-17T16:51:51.367Z,3.13
2023-03-17T16:54:19.328Z,3.28
2023-03-17T16:56:47.681Z,3.40
2023-03-17T16:59:21.572Z,3.22
2023-03-17T17:01:49.874Z,3.15
2023-03-17T17:04:17.770Z,2.88
2023-03-17T17:06:45.771Z,3.13
2023-03-17T17:09:13.542Z,3.22
2023-03-17T17:11:41.382Z,3.70
2023-03-17T17:14:09.037Z,3.55
2023-03-17T17:16:40.032Z,4.55
2023-03-17T17:19:15.968Z,5.18
2023-03-17T17:21:44.801Z,7.00
2023-03-17T17:24:16.424Z,6.82
2023-03-17T17:26:44.518Z,4.97
2023-03-17T17:29:12.464Z,4.47
2023-03-17T17:31:41.084Z,4.35
2023-03-17T17:34:13.272Z,3.95
2023-03-17T17:36:41.511Z,3.85
2023-03-17T17:39:11.113Z,4.15
2023-03-17T17:41:38.914Z,4.07
2023-03-17T17:44:06.901Z,4.47
2023-03-17T17:46:35.058Z,4.20
2023-03-17T17:49:03.055Z,4.97
2023-03-17T17:51:32.841Z,3.70
2023-03-17T17:54:00.907Z,3.67
2023-03-17T17:56:29.092Z,3.45
2023-03-17T17:58:56.847Z,4.05
2023-03-17T18:01:24.642Z,4.55
2023-03-17T18:03:54.117Z,4.22
2023-03-17T18:06:22.190Z,4.00
2023-03-17T18:08:50.496Z,4.18
2023-03-17T18:11:18.736Z,5.00
2023-03-17T18:13:51.593Z,4.38
2023-03-17T18:16:19.975Z,4.35
2023-03-17T18:18:47.903Z,5.35
2023-03-17T18:21:16.215Z,6.78
2023-03-17T18:23:47.409Z,5.75
2023-03-17T18:26:17.726Z,5.40
2023-03-17T18:28:45.982Z,6.60
2023-03-17T18:31:18.758Z,8.57
2023-03-17T18:33:49.548Z,15.07
2023-03-17T18:36:19.068Z,26.08
2023-03-17T18:38:46.964Z,27.40
2023-03-17T18:41:15.450Z,21.58
2023-03-17T18:43:45.000Z,18.50
2023-03-17T18:46:16.687Z,16.98
2023-03-17T18:48:44.605Z,14.52
2023-03-17T18:51:12.704Z,13.13
2023-03-17T18:53:41.884Z,11.10
2023-03-17T18:56:09.981Z,8.85
2023-03-17T18:58:37.970Z,9.73
2023-03-17T19:01:06.376Z,7.57
2023-03-17T19:03:34.566Z,7.63
2023-03-17T19:06:16.048Z,6.50
2023-03-17T19:08:44.353Z,5.93
2023-03-17T19:11:14.276Z,6.28
2023-03-17T19:13:42.444Z,5.82
2023-03-17T19:16:11.318Z,5.78
2023-03-17T19:18:42.466Z,5.63
2023-03-17T19:21:11.627Z,6.10
2023-03-17T19:23:41.668Z,6.22
2023-03-17T19:26:10.578Z,5.88
2023-03-17T19:28:38.436Z,6.55
2023-03-17T19:31:06.623Z,5.95
2023-03-17T19:33:34.757Z,7.13
2023-03-17T19:36:11.709Z,7.97
2023-03-17T19:46:11.566Z,7.10
2023-03-17T19:48:40.582Z,6.18
2023-03-17T19:51:08.340Z,6.18
2023-03-17T19:53:37.589Z,4.53
2023-03-17T19:56:06.720Z,5.28
2023-03-17T19:58:34.865Z,5.03
2023-03-17T20:01:07.032Z,5.97
2023-03-17T20:03:35.736Z,6.35
2023-03-17T20:06:06.571Z,6.10
2023-03-17T20:08:36.154Z,5.97
2023-03-17T20:11:06.115Z,6.63
2023-03-17T20:13:38.049Z,5.45
2023-03-17T20:16:07.562Z,5.97
2023-03-17T20:18:37.181Z,5.90
2023-03-17T20:21:07.212Z,4.93
2023-03-17T20:23:36.886Z,4.50
2023-03-17T20:26:04.955Z,4.70
2023-03-17T20:28:32.846Z,5.25
2023-03-17T20:31:03.161Z,4.43
2023-03-17T20:33:34.206Z,3.95
2023-03-17T20:36:03.411Z,4.93
2023-03-17T20:38:33.766Z,4.18
2023-03-17T20:41:13.932Z,4.63
2023-03-17T20:43:42.249Z,4.18
2023-03-17T20:46:17.343Z,4.30
2023-03-17T20:48:49.076Z,4.20
2023-03-17T20:51:18.312Z,6.22
2023-03-17T20:53:48.068Z,6.95
2023-03-17T20:56:19.204Z,6.93
2023-03-17T20:58:48.664Z,7.10
2023-03-17T21:01:20.900Z,8.07
2023-03-17T21:03:50.249Z,6.45
2023-03-17T21:06:20.183Z,8.13
2023-03-17T21:08:48.032Z,9.63
2023-03-17T21:11:20.113Z,9.32
2023-03-17T21:13:48.683Z,9.18
2023-03-17T21:16:19.894Z,7.63
2023-03-17T21:18:48.726Z,8.18
2023-03-17T21:21:17.508Z,8.48
2023-03-17T21:23:47.647Z,8.43
2023-03-17T21:26:16.080Z,7.90
2023-03-17T21:28:44.604Z,9.40
2023-03-17T21:31:13.589Z,8.93
2023-03-17T21:33:42.591Z,8.80
2023-03-17T21:36:11.281Z,8.13
2023-03-17T21:38:40.195Z,7.38
2023-03-17T21:41:23.581Z,6.78
2023-03-17T21:43:51.413Z,6.78
2023-03-17T21:46:20.599Z,6.45
2023-03-17T21:48:49.065Z,8.65
2023-03-17T21:51:16.918Z,7.60
2023-03-17T21:53:44.969Z,6.97
2023-03-17T21:56:13.849Z,7.55
2023-03-17T21:58:41.943Z,7.65
2023-03-17T22:01:10.346Z,6.72
2023-03-17T22:03:39.733Z,7.10
2023-03-17T22:06:08.310Z,7.85
2023-03-17T22:08:36.244Z,9.20
2023-03-17T22:11:09.040Z,8.32
2023-03-17T22:13:37.327Z,8.35
2023-03-17T22:16:05.578Z,7.35
2023-03-17T22:18:33.992Z,7.07
2023-03-17T22:21:01.957Z,7.38
2023-03-17T22:23:30.492Z,9.98
2023-03-17T22:25:58.468Z,9.50
2023-03-17T22:28:26.816Z,9.05
2023-03-17T22:30:56.354Z,9.88
2023-03-17T22:33:27.028Z,8.65
2023-03-17T22:35:55.024Z,7.72
2023-03-17T22:38:24.824Z,8.73
2023-03-17T22:41:05.441Z,7.25
2023-03-17T22:43:37.388Z,7.30
2023-03-17T22:46:06.073Z,7.57
2023-03-17T22:48:36.120Z,7.38
2023-03-17T22:51:06.229Z,7.65
2023-03-17T22:53:35.346Z,7.07
2023-03-17T22:56:04.364Z,8.00
2023-03-17T22:58:32.568Z,7.70
2023-03-17T23:01:01.405Z,7.85
2023-03-17T23:03:32.045Z,7.35
2023-03-17T23:06:02.526Z,7.75
2023-03-17T23:08:32.326Z,7.80
2023-03-17T23:11:04.702Z,9.43
2023-03-17T23:13:32.692Z,10.38
2023-03-17T23:16:00.426Z,9.73
2023-03-17T23:18:29.066Z,8.65
2023-03-17T23:21:00.345Z,8.35
2023-03-17T23:23:29.032Z,7.72
2023-03-17T23:25:56.811Z,7.45
2023-03-17T23:28:25.304Z,7.50
2023-03-17T23:30:54.326Z,7.32
2023-03-17T23:33:24.172Z,7.18
2023-03-17T23:35:52.962Z,7.45
2023-03-17T23:38:22.026Z,6.93
2023-03-17T23:40:51.122Z,7.63
2023-03-17T23:43:19.634Z,7.65
2023-03-17T23:45:52.776Z,8.68
2023-03-17T23:48:21.771Z,7.93
2023-03-17T23:50:53.034Z,7.55
2023-03-17T23:53:23.494Z,7.88
2023-03-17T23:55:52.960Z,7.13
2023-03-17T23:58:22.153Z,6.57
